Bayard, NE (69334)

7:07 AM MST on December 06, 2016 (GMT -0700)
AG0N | | Change Station

Elev 4100 ft 41.90 °N, 103.56 °W | Updated 2 minutes ago

Clear
Clear
5.9 °F
Feels Like 6 °F
N
0.0
Wind Variable Wind from North
Gusts 0.0 mph

Today
High -- | Low -- °F
--% Chance of Precip.
Yesterday
High -- | Low -- °F
Precip. -- in
Pressure 30.19 in
Visibility 10.0 miles
Clouds Clear
Windchill 6 °F
Dew Point 1 °F
Humidity 78%
Rainfall 0.00 in
Snow Depth Not available.
7:06 AM 4:22 PM
Waxing Crescent, 42% visible
METAR KBFF 061353Z AUTO 36007KT 10SM CLR M17/M20 A2998 RMK AO2 SLP221 T11671200
Pressure 30.19 in
Visibility 10.0 miles
Clouds Clear
Windchill 6 °F
Dew Point 1 °F
Humidity 78%
Rainfall 0.00 in
Snow Depth Not available.
7:06 AM 4:22 PM
Waxing Crescent, 42% visible
METAR KBFF 061353Z AUTO 36007KT 10SM CLR M17/M20 A2998 RMK AO2 SLP221 T11671200

10-Day Weather Forecast

Almanac

Astronomy

Dec. 06, 2016 Rise Set
Actual Time
Civil Twilight
Nautical Twilight
Astronomical Twilight
Moon
Length of Visible Light
Length of Day
Tomorrow will be .
, % of the Moon is Illuminated

Today's Extremes

State Highs State Lows

Community

WunderPhotos

Upload Photos

1,955,949 photos uploaded!

WunderBlog® & News

Nearby

Air Quality

  Air Quality AQ Index Pollutant
Not available.

Snow Depth

Station Depth Elevation

Earthquake Activity

City Distance Mag. Time & Date
Minimum magnitude displayed is 2.5.

Coastal Water Temperatures

Place Temperature

Stations

Nearby Weather Stations

Station Location Temp. Windchill Dew Point Humidity Wind Precip. Elev Updated Type
                   

Watches & Warnings

There are currently no watches in effect.